Terminal Aerodrome Forecast
Issued by NWS Dodge City, KS

Home | Current Version | Previous Version | Text Only | Print | Product List | Glossary On
Versions: 1 2 3 4 5 6 7 8 9 10 11 12 13 14 15 16 17
000
FTUS43 KDDC 170952 AAA
TAFDDC
TAF AMD
KDDC 170952Z 1710/1806 15007KT P6SM SKC
     FM171200 33010KT P6SM SCT100
     FM171400 35010KT P6SM OVC030
      TEMPO 1715/1718 BKN008
     FM171800 VRB06KT P6SM BKN040=

USA.gov is the U.S. government's official web portal to all federal, state and local government web resources and services.